Latest Weather Observations for Shay Gap

IDW60801

Issued at 9:02 pm WST Saturday 31 January 2015 (issued every 30 minutes, with the page automatically refreshed every 10 minutes)

About weather observations | Map of weather stations | Latest weather observations for WA | Other Formats
Station Details ID: 504045 Name: SHAY GAP Lat: -20.43 Lon: 120.13 Height: 173.83 m
Data from the previous 72 hours. | See also: Recent months for locations in Western Australia
Date/Time
WST
Temp
°C
App
Temp
°C
Dew
Point
Rel
Hum
%
Delta-T
°C
Wind Press
QNH
hPa
Press
MSL
hPa
Rain
since 9 am
mm
Dir
 
Spd
km/h
Gust
km/h
Spd
kts
Gust
kts
31/09:00pm 27.3 26.9 20.1 64 4.7 NNW 22 28 12 15 1009.3 1007.8 0.0
31/08:30pm 27.7 27.6 19.5 61 5.4 NNW 19 24 10 13 1009.1 1007.6 0.0
31/08:00pm 28.3 27.2 18.7 56 6.2 NNW 22 30 12 16 1009.0 1007.5 0.0
31/07:30pm 29.0 28.2 18.4 52 6.8 NW 20 26 11 14 1008.8 1007.3 0.0
31/07:00pm 29.9 28.5 18.7 51 7.3 NNW 24 32 13 17 1008.6 1007.1 0.0
31/06:30pm 31.2 28.9 17.5 44 8.8 NNW 26 33 14 18 1008.2 1006.7 0.0
31/06:00pm 32.1 29.2 16.0 38 10.2 NNW 26 33 14 18 1007.7 1006.2 0.0
31/05:30pm 33.0 30.0 16.8 38 10.3 NNW 28 39 15 21 1007.4 1005.9 0.0
31/05:00pm 33.6 30.6 16.9 37 10.7 NW 28 43 15 23 1007.4 1005.9 0.0
31/04:30pm 34.6 32.2 17.3 35 11.2 NNW 26 35 14 19 1007.1 1005.6 0.0
31/04:00pm 34.8 32.5 17.5 35 11.2 NNW 26 35 14 19 1007.1 1005.6 0.0
31/03:30pm 35.2 33.0 17.9 36 11.3 NNW 26 39 14 21 1006.8 1005.3 0.0
31/03:00pm 34.8 32.8 17.5 35 11.2 NNW 24 37 13 20 1006.7 1005.2 0.0
31/02:30pm 36.2 35.7 17.8 33 12.0 NW 17 30 9 16 1006.9 1005.4 0.0
31/02:00pm 35.3 33.4 16.6 33 12.0 NNW 22 32 12 17 1007.3 1005.8 0.0
31/01:30pm 36.3 34.7 16.5 31 12.7 N 20 32 11 17 1007.6 1006.1 0.0
31/01:00pm 34.9 33.4 16.7 34 11.7 NNW 20 35 11 19 1008.0 1006.5 0.0
31/12:30pm 35.0 33.7 17.2 34 11.5 N 20 32 11 17 1008.3 1006.8 0.0
31/12:00pm 34.9 35.1 17.6 35 11.3 NNW 13 26 7 14 1008.6 1007.1 0.0
31/11:30am 34.0 33.1 16.8 35 11.0 N 17 30 9 16 1009.1 1007.6 0.0
31/11:00am 32.1 31.5 17.6 42 9.4 NNW 17 24 9 13 1009.5 1008.0 0.0
31/10:30am 32.2 31.8 18.0 42 9.2 W 17 28 9 15 1009.8 1008.3 0.0
31/10:00am 31.4 30.6 18.0 44 8.7 WNW 19 24 10 13 1009.9 1008.4 0.0
31/09:30am 30.6 30.8 19.3 51 7.4 WNW 17 24 9 13 1010.0 1008.5 0.0
31/09:00am 29.7 30.4 19.7 55 6.6 W 15 24 8 13 1010.2 1008.7 0.0
31/08:30am 29.2 30.1 20.1 58 6.0 WNW 15 24 8 13 1010.2 1008.7 0.0
31/08:00am 28.4 29.2 20.7 63 5.1 WNW 17 24 9 13 1010.1 1008.6 0.0
31/07:30am 27.0 28.9 20.6 68 4.2 WNW 11 17 6 9 1009.9 1008.4 0.0
31/07:00am 26.5 29.5 21.3 73 3.5 WNW 7 13 4 7 1009.7 1008.2 0.0
31/06:30am 25.2 28.1 21.1 78 2.7 NW 7 9 4 5 1009.7 1008.2 0.0
31/06:00am 24.8 27.2 20.9 79 2.6 WNW 9 11 5 6 1009.4 1007.9 0.0
31/05:30am 24.6 26.9 20.7 79 2.6 WNW 9 13 5 7 1009.0 1007.5 0.0
31/05:00am 25.1 28.0 21.0 78 2.7 WSW 7 11 4 6 1009.1 1007.6 0.0
31/04:30am 25.5 28.0 21.0 76 3.0 W 9 15 5 8 1009.2 1007.7 0.0
31/04:22am 25.5 27.6 21.0 76 3.0 W 11 15 6 8 1009.0 1007.5 0.0
31/04:12am 25.6 28.1 21.1 76 3.0 WSW 9 13 5 7 1009.2 1007.7 0.0
31/04:00am 25.6 27.8 21.1 76 3.0 W 11 13 6 7 1009.0 1007.5 0.0
31/03:30am 25.8 28.3 21.0 75 3.2 WSW 9 13 5 7 1009.0 1007.5 0.0
31/03:00am 26.0 28.2 21.2 75 3.2 SW 11 13 6 7 1008.9 1007.4 0.0
31/02:30am 26.1 27.5 21.1 74 3.3 SW 15 17 8 9 1008.9 1007.4 0.0
31/02:00am 26.2 28.0 21.2 74 3.3 SW 13 17 7 9 1009.0 1007.5 0.0
31/01:38am 26.3 28.5 21.1 73 3.5 WSW 11 17 6 9 1008.9 1007.4 0.0
31/01:30am 26.6 28.4 21.1 72 3.7 SSW 13 17 7 9 1009.2 1007.7 0.0
31/01:00am 26.4 28.4 21.6 75 3.2 S 13 17 7 9 1009.5 1008.0 0.0
31/12:53am 26.1 28.5 21.5 76 3.1 SW 11 15 6 8 1009.4 1007.9 0.0
31/12:30am 25.9 26.1 21.3 76 3.1 WNW 22 30 12 16 1008.4 1006.9 0.0
31/12:00am 26.1 26.0 21.5 76 3.1 WNW 24 30 13 16 1008.5 1007.0 0.0
 
Date/Time
WST
Temp
°C
App
Temp
°C
Dew
Point
Rel
Hum
%
Delta-T
°C
Wind Press
QNH
hPa
Press
MSL
hPa
Rain
since 9 am
mm
Dir
 
Spd
km/h
Gust
km/h
Spd
kts
Gust
kts
30/11:40pm 26.2 26.5 21.6 76 3.1 WNW 22 33 12 18 1008.5 1007.0 0.0
30/11:30pm 26.2 26.2 21.6 76 3.1 WNW 24 33 13 18 1008.6 1007.1 0.0
30/11:00pm 26.4 26.4 21.6 75 3.2 WNW 24 32 13 17 1008.6 1007.1 0.0
30/10:40pm 26.6 26.2 21.6 74 3.4 WNW 26 35 14 19 1008.4 1006.9 0.0
30/10:30pm 26.6 27.2 21.4 73 3.5 WNW 20 28 11 15 1008.4 1006.9 0.0
30/10:11pm 26.7 27.4 21.5 73 3.5 WNW 20 26 11 14 1008.2 1006.7 0.0
30/10:00pm 26.7 27.0 21.5 73 3.5 WNW 22 32 12 17 1008.0 1006.5 0.0
30/09:30pm 27.0 27.0 21.7 73 3.6 NW 24 32 13 17 1007.7 1006.2 0.0
30/09:26pm 27.0 27.0 21.7 73 3.6 NW 24 32 13 17 1007.6 1006.1 0.0
30/09:00pm 27.2 27.6 21.7 72 3.7 NW 22 32 12 17 1007.5 1006.0 0.0
30/08:44pm 27.3 27.3 21.6 71 3.8 NW 24 33 13 18 1007.3 1005.8 0.0
30/08:30pm 27.4 27.1 21.9 72 3.7 NW 26 33 14 18 1007.2 1005.7 0.0
30/08:22pm 27.6 27.4 22.1 72 3.7 NW 26 37 14 20 1007.1 1005.6 0.0
30/08:00pm 27.6 26.0 21.6 70 4.0 NNW 32 41 17 22 1007.0 1005.5 0.0
30/07:30pm 28.1 26.8 21.4 67 4.5 NNW 30 41 16 22 1006.5 1005.0 0.0
30/07:00pm 28.8 27.3 21.0 62 5.2 NNW 30 41 16 22 1006.4 1004.9 0.0
30/06:30pm 29.6 28.0 20.7 58 5.9 NW 30 43 16 23 1006.0 1004.5 0.0
30/06:00pm 30.7 28.7 21.2 57 6.4 NNW 33 44 18 24 1005.5 1003.9 0.0
30/05:30pm 31.6 29.1 20.8 52 7.3 NNW 35 46 19 25 1005.2 1003.6 0.0
30/05:00pm 33.0 31.2 21.2 50 8.0 NNW 32 44 17 24 1005.2 1003.6 0.0
30/04:46pm 33.4 31.8 21.5 49 8.1 NNW 32 56 17 30 1005.0 1003.4 0.0
30/04:30pm 33.3 31.5 21.5 50 8.0 NW 33 46 18 25 1005.1 1003.5 0.0
30/04:00pm 34.7 32.8 21.4 46 9.1 NNW 33 48 18 26 1005.0 1003.4 0.0
30/03:43pm 36.2 34.6 21.6 42 10.0 NNW 32 50 17 27 1004.9 1003.3 0.0
30/03:30pm 35.5 33.1 21.0 42 9.9 NNW 35 50 19 27 1005.1 1003.5 0.0
30/03:00pm 36.2 34.4 21.2 41 10.3 NNW 32 41 17 22 1005.1 1003.5 0.0
30/02:38pm 35.6 33.4 20.7 41 10.1 NNW 33 54 18 29 1005.2 1003.6 0.0
30/02:37pm 36.4 34.3 21.0 40 10.5 NNW 33 54 18 29 1005.3 1003.7 0.0
30/02:36pm 36.4 34.7 21.4 41 10.3 NNW 32 54 17 29 1005.1 1003.5 0.0
30/02:30pm 36.4 34.7 20.6 39 10.7 NNW 30 46 16 25 1005.3 1003.7 0.0
30/02:00pm 36.3 35.8 17.9 33 12.1 WNW 17 26 9 14 1005.6 1004.1 0.0
30/01:30pm 36.7 37.0 18.7 34 11.9 NW 15 28 8 15 1006.0 1004.5 0.0
30/01:00pm 36.1 37.1 18.7 36 11.5 NNW 11 24 6 13 1006.4 1004.9 0.0
30/12:30pm 35.3 36.0 18.8 37 10.9 NW 13 24 7 13 1006.8 1005.3 0.0
30/12:00pm 34.4 35.9 18.8 39 10.3 SW 9 22 5 12 1007.4 1005.9 0.0
30/11:30am 34.5 35.8 20.1 43 9.7 NNW 13 22 7 12 1008.0 1006.5 0.0
30/11:00am 32.9 34.2 20.1 47 8.6 W 13 20 7 11 1008.5 1007.0 0.0
30/10:30am 32.0 33.8 20.3 50 7.8 WNW 11 22 6 12 1008.6 1007.1 0.0
30/10:00am 30.7 32.3 20.0 52 7.1 WSW 11 20 6 11 1009.0 1007.5 0.0
30/09:30am 30.3 31.0 20.5 55 6.5 WSW 17 24 9 13 1009.2 1007.7 0.0
30/09:00am 29.5 30.4 20.9 60 5.8 W 17 22 9 12 1009.4 1007.9 0.0
30/08:39am 29.2 29.9 21.2 62 5.4 WNW 19 26 10 14 1009.4 1007.9 0.0
30/08:30am 28.5 29.3 21.3 65 4.8 WNW 19 24 10 13 1009.4 1007.9 0.0
30/08:10am 27.8 28.4 21.3 67 4.4 W 20 28 11 15 1009.2 1007.7 0.0
30/08:00am 27.9 28.7 21.4 67 4.4 W 19 24 10 13 1009.0 1007.5 0.0
30/07:30am 26.6 27.6 21.8 75 3.2 W 19 24 10 13 1009.1 1007.6 0.0
30/07:16am 26.2 27.0 21.8 77 3.0 W 20 28 11 15 1009.1 1007.6 0.0
30/07:00am 26.0 26.9 21.9 78 2.8 WSW 20 28 11 15 1008.8 1007.3 0.0
30/06:30am 25.4 26.6 21.5 79 2.6 WSW 17 22 9 12 1008.9 1007.4 0.0
30/06:00am 25.1 26.5 21.8 82 2.2 WSW 17 24 9 13 1008.6 1007.1 0.0
30/05:43am 25.2 26.4 22.1 83 2.1 WSW 19 24 10 13 1008.6 1007.1 0.0
30/05:30am 24.9 26.9 22.2 85 1.8 W 15 19 8 10 1008.3 1006.8 0.0
30/05:00am 24.4 27.3 21.7 85 1.8 NW 9 13 5 7 1007.4 1005.9 0.0
30/04:30am 24.3 27.7 21.6 85 1.8 NW 6 7 3 4 1007.1 1005.6 0.0
30/04:00am 24.6 27.5 21.7 84 1.9 NW 9 11 5 6 1006.8 1005.3 0.0
30/03:30am 24.5 27.8 21.8 85 1.8 NW 7 11 4 6 1006.8 1005.3 0.0
30/03:00am 24.8 27.7 21.7 83 2.1 NNW 9 11 5 6 1006.7 1005.2 0.0
30/02:30am 25.1 27.6 21.8 82 2.2 NNW 11 13 6 7 1006.5 1005.0 0.0
30/02:00am 25.4 27.1 21.7 80 2.5 NW 15 19 8 10 1006.8 1005.3 0.0
30/01:30am 25.8 27.2 21.9 79 2.6 NW 17 22 9 12 1007.2 1005.7 0.0
30/01:00am 26.0 26.8 21.7 77 2.9 WNW 20 28 11 15 1007.4 1005.9 0.0
30/12:30am 26.2 27.6 21.8 77 3.0 WNW 17 22 9 12 1007.6 1006.1 0.0
30/12:00am 26.4 28.2 21.8 76 3.1 WNW 15 22 8 12 1007.6 1006.1 0.0
 
Date/Time
WST
Temp
°C
App
Temp
°C
Dew
Point
Rel
Hum
%
Delta-T
°C
Wind Press
QNH
hPa
Press
MSL
hPa
Rain
since 9 am
mm
Dir
 
Spd
km/h
Gust
km/h
Spd
kts
Gust
kts
29/11:30pm 26.7 28.4 21.7 74 3.4 WNW 15 19 8 10 1007.7 1006.2 0.0
29/11:00pm 27.0 28.3 21.7 73 3.6 WNW 17 22 9 12 1008.2 1006.7 0.0
29/10:30pm 27.4 28.2 21.7 71 3.8 WNW 20 28 11 15 1008.2 1006.7 0.0
29/10:28pm 27.3 28.0 21.6 71 3.8 WNW 20 28 11 15 1008.2 1006.7 0.0
29/10:00pm 27.6 28.1 21.9 71 3.9 W 22 30 12 16 1008.9 1007.4 0.0
29/09:55pm 27.6 28.3 21.6 70 4.0 W 20 30 11 16 1008.9 1007.4 0.0
29/09:30pm 27.5 29.3 21.8 71 3.8 WNW 15 24 8 13 1008.1 1006.6 0.0
29/09:00pm 27.3 26.9 21.6 71 3.8 NW 26 35 14 19 1007.1 1005.6 0.0
29/08:30pm 27.7 27.3 21.7 70 4.0 NW 26 35 14 19 1006.5 1005.0 0.0
29/08:00pm 28.2 27.2 21.2 65 4.7 NW 28 33 15 18 1006.3 1004.8 0.0
29/07:30pm 28.8 28.4 21.0 62 5.2 NW 24 33 13 18 1005.9 1004.4 0.0
29/07:00pm 29.4 28.2 20.8 60 5.8 NNW 28 35 15 19 1005.8 1004.3 0.0
29/06:30pm 30.4 28.4 20.0 53 6.9 NNW 30 39 16 21 1005.6 1004.1 0.0
29/06:00pm 31.9 30.0 20.2 50 7.8 NW 30 39 16 21 1004.8 1003.2 0.0
29/05:30pm 33.1 30.9 20.3 47 8.6 NNW 32 43 17 23 1004.3 1002.8 0.0
29/05:00pm 33.8 31.2 19.8 43 9.4 NNW 33 41 18 22 1003.7 1002.2 0.0
29/04:30pm 35.3 32.6 19.2 38 10.7 NNW 32 43 17 23 1003.6 1002.1 0.0
29/04:00pm 36.4 34.9 19.4 37 11.4 NW 26 37 14 20 1003.6 1002.1 0.0
29/03:30pm 36.4 35.3 19.4 37 11.4 NW 24 37 13 20 1003.8 1002.3 0.0
29/03:00pm 37.0 35.9 19.4 35 11.8 NW 24 35 13 19 1004.0 1002.5 0.0
29/02:30pm 37.1 35.2 18.6 33 12.3 NW 26 35 14 19 1004.6 1003.1 0.0
29/02:00pm 36.8 35.8 18.8 34 12.0 NW 22 35 12 19 1004.6 1003.1 0.0
29/01:30pm 36.8 35.0 16.9 31 12.9 NW 22 35 12 19 1005.0 1003.4 0.0
29/01:00pm 36.8 34.8 16.4 30 13.1 NW 22 41 12 22 1005.4 1003.8 0.0
29/12:30pm 36.8 35.5 16.9 31 12.9 NW 19 30 10 16 1005.9 1004.4 0.0
29/12:00pm 35.4 34.2 16.2 32 12.3 W 17 26 9 14 1006.4 1004.9 0.0
29/11:30am 34.8 33.6 17.1 35 11.4 NW 19 30 10 16 1006.8 1005.3 0.0
29/11:00am 33.5 32.8 16.4 36 10.9 WNW 15 24 8 13 1007.4 1005.9 0.0
29/10:30am 33.6 32.5 17.3 37 10.5 NW 19 30 10 16 1007.9 1006.4 0.0
29/10:00am 32.0 32.1 17.5 42 9.3 WNW 13 24 7 13 1008.3 1006.8 0.0
29/09:30am 31.4 31.0 18.0 44 8.7 WNW 17 26 9 14 1008.5 1007.0 0.0
29/09:00am 30.6 30.6 17.3 45 8.5 NW 13 19 7 10 1008.6 1007.1 0.0
29/08:30am 29.3 29.2 18.7 52 6.9 NW 17 22 9 12 1008.6 1007.1 0.0
29/08:00am 28.2 28.0 19.7 60 5.6 NW 20 26 11 14 1008.9 1007.4 0.0
29/07:30am 26.9 27.2 20.5 68 4.2 NW 19 22 10 12 1008.8 1007.3 0.0
29/07:02am 25.9 27.8 20.5 72 3.6 W 11 17 6 9 1009.0 1007.5 0.0
29/07:00am 25.9 27.8 20.5 72 3.6 W 11 17 6 9 1008.9 1007.4 0.0
29/06:30am 25.4 28.1 20.6 75 3.2 WSW 7 11 4 6 1008.5 1007.0 0.0
29/06:00am 24.9 27.2 20.6 77 2.8 SW 9 15 5 8 1008.0 1006.5 0.0
29/05:30am 25.4 27.1 20.9 76 3.0 SSW 13 17 7 9 1007.9 1006.4 0.0
29/05:00am 25.0 27.1 20.9 78 2.7 SW 11 15 6 8 1007.5 1006.0 0.0
29/04:30am 25.4 26.9 21.3 78 2.7 SSW 15 17 8 9 1007.2 1005.7 0.0
29/04:00am 25.1 27.0 21.4 80 2.5 WSW 13 17 7 9 1006.6 1005.1 0.0
29/03:30am 25.2 26.1 21.5 80 2.5 WSW 19 24 10 13 1006.2 1004.7 0.0
29/03:00am 25.3 26.5 21.4 79 2.6 WSW 17 22 9 12 1006.1 1004.6 0.0
29/02:30am 25.3 26.1 21.4 79 2.6 W 19 26 10 14 1005.8 1004.3 0.0
29/02:00am 25.1 26.0 21.6 81 2.3 W 19 24 10 13 1005.8 1004.3 0.0
29/01:42am 24.9 26.2 21.6 82 2.2 WNW 17 22 9 12 1006.0 1004.5 0.0
29/01:30am 24.9 26.2 21.6 82 2.2 WNW 17 26 9 14 1006.0 1004.5 0.0
29/01:00am 25.1 25.8 21.6 81 2.3 WNW 20 26 11 14 1006.0 1004.5 0.0
29/12:30am 25.2 25.9 21.5 80 2.5 WNW 20 28 11 15 1006.2 1004.7 0.0
29/12:00am 25.4 25.7 21.5 79 2.6 WNW 22 30 12 16 1006.3 1004.8 0.0
 
Date/Time
WST
Temp
°C
App
Temp
°C
Dew
Point
Rel
Hum
%
Delta-T
°C
Wind Press
QNH
hPa
Press
MSL
hPa
Rain
since 9 am
mm
Dir
 
Spd
km/h
Gust
km/h
Spd
kts
Gust
kts
28/11:30pm 25.6 25.5 21.5 78 2.7 WNW 24 30 13 16 1006.7 1005.2 0.0
28/11:00pm 25.9 26.6 21.6 77 2.9 WNW 20 24 11 13 1007.2 1005.7 0.0
28/10:30pm 26.0 26.2 21.4 76 3.1 WNW 22 30 12 16 1007.1 1005.6 0.0
28/10:00pm 26.4 27.7 21.6 75 3.2 WNW 17 24 9 13 1007.3 1005.8 0.0
28/09:30pm 26.5 26.9 21.0 72 3.7 NW 20 28 11 15 1006.7 1005.2 0.0

Other Formats:

Comma delimited format used in spreadsheet applications
http://www.bom.gov.au/fwo/IDW60801/IDW60801.99311.axf

JavaScript Object Notation format (JSON) in row-major order
http://www.bom.gov.au/fwo/IDW60801/IDW60801.99311.json